Time;durP1;ratioP1;P1;durP2;ratioP2;P2;SDS_P1;SDS_P2;PMS_P1;PMS_P2;Temp;Humidity;BMP_temperature;BMP_pressure;BME280_temperature;BME280_humidity;BME280_pressure;Samples;Min_cycle;Max_cycle;Signal;HPM_P1;HPM_P2
2023/07/06 00:00:48;;;;;;;8.90;5.50;;;;;;;;;;5112627;28;20532;-77
2023/07/06 00:03:14;;;;;;;10.35;5.40;;;;;;;;;;5111528;28;20035;-77
2023/07/06 00:05:44;;;;;;;10.38;5.38;;;;;;;;;;5112809;28;20100;-77
2023/07/06 00:08:16;;;;;;;10.45;6.25;;;;;;;;;;5112810;28;20035;-78
2023/07/06 00:10:43;;;;;;;8.90;5.45;;;;;;;;;;5105276;28;20131;-77
2023/07/06 00:13:10;;;;;;;13.07;6.13;;;;;;;;;;5104939;28;20456;-77
2023/07/06 00:15:36;;;;;;;9.10;5.13;;;;;;;;;;5111936;28;20064;-77
2023/07/06 00:18:03;;;;;;;10.00;6.15;;;;;;;;;;5091723;28;20053;-76
2023/07/06 00:20:33;;;;;;;11.55;6.28;;;;;;;;;;5090870;28;20047;-76
2023/07/06 00:22:59;;;;;;;9.95;6.20;;;;;;;;;;5092514;28;20511;-76
2023/07/06 00:25:25;;;;;;;8.68;5.78;;;;;;;;;;5092107;28;20208;-77
2023/07/06 00:27:54;;;;;;;7.57;5.80;;;;;;;;;;5093438;28;20178;-77
2023/07/06 00:30:30;;;;;;;9.23;6.30;;;;;;;;;;5110534;28;20060;-77
2023/07/06 00:32:57;;;;;;;10.55;6.45;;;;;;;;;;5111389;28;20047;-77
2023/07/06 00:35:24;;;;;;;10.23;6.43;;;;;;;;;;5112219;28;20044;-77
2023/07/06 00:37:51;;;;;;;12.02;6.18;;;;;;;;;;5111290;28;20052;-77
2023/07/06 00:40:17;;;;;;;9.85;6.30;;;;;;;;;;5109297;28;20047;-77
2023/07/06 00:42:44;;;;;;;9.82;6.32;;;;;;;;;;5112682;28;20126;-77
2023/07/06 00:45:10;;;;;;;10.75;6.82;;;;;;;;;;5112234;28;20043;-77
2023/07/06 00:47:39;;;;;;;9.10;6.22;;;;;;;;;;5110317;28;20052;-77
2023/07/06 00:50:11;;;;;;;9.55;6.90;;;;;;;;;;5112066;28;20063;-77
2023/07/06 00:52:40;;;;;;;10.80;6.53;;;;;;;;;;5112037;28;20039;-77
2023/07/06 00:55:07;;;;;;;9.73;6.57;;;;;;;;;;5112303;28;20434;-76
2023/07/06 00:57:35;;;;;;;14.32;7.20;;;;;;;;;;5112929;28;20115;-77
2023/07/06 01:00:04;;;;;;;12.60;6.72;;;;;;;;;;5111712;28;20047;-77
2023/07/06 01:02:30;;;;;;;13.15;6.72;;;;;;;;;;5112142;28;20083;-77
2023/07/06 01:04:57;;;;;;;12.27;7.68;;;;;;;;;;5111876;28;20097;-77
2023/07/06 01:07:26;;;;;;;13.70;7.05;;;;;;;;;;5112425;28;20089;-77
2023/07/06 01:09:52;;;;;;;14.48;7.50;;;;;;;;;;5112120;28;20101;-76
2023/07/06 01:12:19;;;;;;;12.35;6.82;;;;;;;;;;5112258;28;20043;-77
2023/07/06 01:14:46;;;;;;;14.35;7.70;;;;;;;;;;5095789;28;20388;-77
2023/07/06 01:17:15;;;;;;;13.45;7.25;;;;;;;;;;5113443;28;20039;-77
2023/07/06 01:19:53;;;;;;;11.75;7.63;;;;;;;;;;5095153;28;20050;-77
2023/07/06 01:22:39;;;;;;;13.55;8.23;;;;;;;;;;5095241;28;20048;-77
2023/07/06 01:25:17;;;;;;;12.73;8.60;;;;;;;;;;5094910;28;20055;-77
2023/07/06 01:27:50;;;;;;;12.35;8.10;;;;;;;;;;5113746;28;20400;-77
2023/07/06 01:30:19;;;;;;;13.07;8.75;;;;;;;;;;5105729;28;20044;-77
2023/07/06 01:32:49;;;;;;;15.60;9.20;;;;;;;;;;5091546;28;20636;-77
2023/07/06 01:35:18;;;;;;;15.02;8.82;;;;;;;;;;5092486;28;20048;-77
2023/07/06 01:37:47;;;;;;;12.57;8.88;;;;;;;;;;5094995;28;20051;-77
2023/07/06 01:40:13;;;;;;;14.05;9.05;;;;;;;;;;5095603;28;20032;-77
2023/07/06 01:42:43;;;;;;;14.43;9.05;;;;;;;;;;5094630;28;20046;-77
2023/07/06 01:45:16;;;;;;;17.05;8.93;;;;;;;;;;5104044;28;20436;-77
2023/07/06 01:47:47;;;;;;;14.27;9.45;;;;;;;;;;5109488;28;20072;-77
2023/07/06 01:50:14;;;;;;;14.23;9.25;;;;;;;;;;5092310;28;20130;-77
2023/07/06 01:52:44;;;;;;;16.95;9.73;;;;;;;;;;5114306;28;20043;-77
2023/07/06 01:55:20;;;;;;;14.25;9.27;;;;;;;;;;5113127;28;20470;-77
2023/07/06 01:58:04;;;;;;;14.48;8.98;;;;;;;;;;5113315;28;20047;-77
2023/07/06 02:00:30;;;;;;;11.65;8.95;;;;;;;;;;5114341;28;20043;-76
2023/07/06 02:02:57;;;;;;;16.10;9.93;;;;;;;;;;5107142;28;20110;-77
2023/07/06 02:05:24;;;;;;;16.45;9.98;;;;;;;;;;5093570;28;20040;-77
2023/07/06 02:07:50;;;;;;;15.75;9.45;;;;;;;;;;5094938;28;20048;-77
2023/07/06 02:10:17;;;;;;;15.13;10.07;;;;;;;;;;5112714;28;20051;-77
2023/07/06 02:12:47;;;;;;;15.07;10.15;;;;;;;;;;5114627;28;20549;-77
2023/07/06 02:15:16;;;;;;;15.45;9.95;;;;;;;;;;5113762;28;20492;-77
2023/07/06 02:17:42;;;;;;;16.75;9.77;;;;;;;;;;5102565;28;20061;-77
2023/07/06 02:20:09;;;;;;;15.27;10.07;;;;;;;;;;5093885;28;20163;-77
2023/07/06 02:22:35;;;;;;;14.05;10.00;;;;;;;;;;5092597;28;20086;-76
2023/07/06 02:25:01;;;;;;;12.80;9.80;;;;;;;;;;5093720;28;20172;-77
2023/07/06 02:27:27;;;;;;;14.13;10.25;;;;;;;;;;5093283;28;20068;-77
2023/07/06 02:29:53;;;;;;;17.50;10.43;;;;;;;;;;5093927;28;20036;-77
2023/07/06 02:32:20;;;;;;;14.52;10.27;;;;;;;;;;5094504;28;20131;-77
2023/07/06 02:34:46;;;;;;;12.70;9.52;;;;;;;;;;5109183;28;20384;-77
2023/07/06 02:37:12;;;;;;;16.45;9.85;;;;;;;;;;5092967;28;20131;-77
2023/07/06 02:39:39;;;;;;;16.55;10.05;;;;;;;;;;5105589;28;20051;-77
2023/07/06 02:42:05;;;;;;;14.98;10.30;;;;;;;;;;5092632;28;20452;-77
2023/07/06 02:44:31;;;;;;;15.07;10.60;;;;;;;;;;5100987;28;20035;-77
2023/07/06 02:46:57;;;;;;;16.42;10.70;;;;;;;;;;5112697;28;20437;-76
2023/07/06 02:49:24;;;;;;;13.82;10.30;;;;;;;;;;5112644;28;20130;-77
2023/07/06 02:51:50;;;;;;;17.55;11.05;;;;;;;;;;5113767;28;20039;-77
2023/07/06 02:54:16;;;;;;;16.45;10.88;;;;;;;;;;5112653;28;20428;-77
2023/07/06 02:56:42;;;;;;;17.40;11.55;;;;;;;;;;5113869;28;20075;-76
2023/07/06 02:59:13;;;;;;;22.08;11.32;;;;;;;;;;5113614;28;20131;-76
2023/07/06 03:01:39;;;;;;;17.55;10.38;;;;;;;;;;5112277;28;20130;-76
2023/07/06 03:04:09;;;;;;;16.77;10.73;;;;;;;;;;5113621;28;20104;-76
2023/07/06 03:06:36;;;;;;;18.58;11.20;;;;;;;;;;5115029;28;20043;-74
2023/07/06 03:09:02;;;;;;;15.75;11.45;;;;;;;;;;5121786;28;20039;-74
2023/07/06 03:11:28;;;;;;;17.38;10.60;;;;;;;;;;5116889;28;20043;-76
2023/07/06 03:13:55;;;;;;;16.70;11.15;;;;;;;;;;5114028;28;20047;-75
2023/07/06 03:16:21;;;;;;;15.98;10.75;;;;;;;;;;5113705;28;20054;-76
2023/07/06 03:18:47;;;;;;;13.75;10.45;;;;;;;;;;5113426;28;20046;-75
2023/07/06 03:21:14;;;;;;;19.75;10.93;;;;;;;;;;5113144;28;20488;-77
2023/07/06 03:23:41;;;;;;;14.93;10.90;;;;;;;;;;5095007;28;20055;-76
2023/07/06 03:26:08;;;;;;;14.48;10.95;;;;;;;;;;5113341;28;20122;-76
2023/07/06 03:28:35;;;;;;;17.35;10.85;;;;;;;;;;5111846;28;20071;-76
2023/07/06 03:31:01;;;;;;;13.27;9.95;;;;;;;;;;5112936;28;20112;-76
2023/07/06 03:33:28;;;;;;;16.00;10.15;;;;;;;;;;5113280;28;20356;-76
2023/07/06 03:35:55;;;;;;;14.93;10.23;;;;;;;;;;5112902;28;20403;-76
2023/07/06 03:38:22;;;;;;;18.75;10.15;;;;;;;;;;5112775;28;20047;-76
2023/07/06 03:40:48;;;;;;;17.98;10.85;;;;;;;;;;5111599;28;20150;-76
2023/07/06 03:43:15;;;;;;;17.50;10.57;;;;;;;;;;5111627;28;20075;-76
2023/07/06 03:45:42;;;;;;;13.90;9.32;;;;;;;;;;5111843;28;20047;-76
2023/07/06 03:48:08;;;;;;;14.07;9.68;;;;;;;;;;5113294;28;20050;-76
2023/07/06 03:50:34;;;;;;;14.52;10.07;;;;;;;;;;5112601;28;20115;-76
2023/07/06 03:53:03;;;;;;;15.38;9.95;;;;;;;;;;5112699;28;20047;-76
2023/07/06 03:55:29;;;;;;;15.40;9.80;;;;;;;;;;5111711;28;20102;-76
2023/07/06 03:57:59;;;;;;;13.10;10.05;;;;;;;;;;5110907;28;20057;-76
2023/07/06 04:00:26;;;;;;;14.73;9.48;;;;;;;;;;5110626;28;20411;-75
2023/07/06 04:02:55;;;;;;;13.85;9.25;;;;;;;;;;5112728;28;20085;-76
2023/07/06 04:05:23;;;;;;;14.75;8.90;;;;;;;;;;5112520;28;20090;-76
2023/07/06 04:07:52;;;;;;;13.85;9.10;;;;;;;;;;5113014;28;20039;-77
2023/07/06 04:10:22;;;;;;;13.85;9.13;;;;;;;;;;5112452;28;20055;-76
2023/07/06 04:12:49;;;;;;;10.82;8.60;;;;;;;;;;5112602;28;20549;-76
2023/07/06 04:15:19;;;;;;;16.70;8.88;;;;;;;;;;5112667;28;20450;-76
2023/07/06 04:17:47;;;;;;;17.05;8.68;;;;;;;;;;5111798;28;20043;-76
2023/07/06 04:20:22;;;;;;;16.48;9.13;;;;;;;;;;5110863;28;20362;-77
2023/07/06 04:22:49;;;;;;;15.30;9.20;;;;;;;;;;5112616;28;20125;-76
2023/07/06 04:25:19;;;;;;;16.60;9.82;;;;;;;;;;5112401;28;20098;-76
2023/07/06 04:27:45;;;;;;;13.15;8.90;;;;;;;;;;5112771;28;20082;-76
2023/07/06 04:30:12;;;;;;;15.70;8.70;;;;;;;;;;5112270;28;20047;-77
2023/07/06 04:32:38;;;;;;;20.45;8.57;;;;;;;;;;5112298;28;20413;-77
2023/07/06 04:35:06;;;;;;;13.18;8.95;;;;;;;;;;5111118;28;20051;-77
2023/07/06 04:37:33;;;;;;;17.80;8.93;;;;;;;;;;5112465;28;20082;-76
2023/07/06 04:40:00;;;;;;;13.95;8.50;;;;;;;;;;5111890;28;20054;-77
2023/07/06 04:42:28;;;;;;;15.68;8.93;;;;;;;;;;5096421;28;20032;-77
2023/07/06 04:44:57;;;;;;;18.27;8.95;;;;;;;;;;5098141;28;20043;-77
2023/07/06 04:47:23;;;;;;;18.15;9.00;;;;;;;;;;5110348;28;20506;-77
2023/07/06 04:49:50;;;;;;;17.85;8.80;;;;;;;;;;5111541;28;20353;-77
2023/07/06 04:52:17;;;;;;;20.70;8.88;;;;;;;;;;5114832;28;20395;-77
2023/07/06 04:54:43;;;;;;;18.85;9.60;;;;;;;;;;5115501;28;20047;-77
2023/07/06 04:57:16;;;;;;;15.25;8.57;;;;;;;;;;5102894;28;20392;-77
2023/07/06 04:59:42;;;;;;;20.55;9.95;;;;;;;;;;5115983;28;20048;-77
2023/07/06 05:02:10;;;;;;;18.35;9.27;;;;;;;;;;5105758;28;20126;-77
2023/07/06 05:04:40;;;;;;;16.20;9.48;;;;;;;;;;5093848;28;20040;-77
2023/07/06 05:07:07;;;;;;;17.55;9.48;;;;;;;;;;5094525;28;20058;-77
2023/07/06 05:09:35;;;;;;;18.73;10.43;;;;;;;;;;5095405;28;20444;-77
2023/07/06 05:12:01;;;;;;;18.27;9.85;;;;;;;;;;5095278;28;20060;-77
2023/07/06 05:14:27;;;;;;;19.10;10.05;;;;;;;;;;5106665;28;20040;-77
2023/07/06 05:16:53;;;;;;;16.80;9.10;;;;;;;;;;5115676;28;20051;-77
2023/07/06 05:19:22;;;;;;;17.98;9.52;;;;;;;;;;5114577;28;20096;-77
2023/07/06 05:21:48;;;;;;;16.48;9.88;;;;;;;;;;5113710;28;20051;-77
2023/07/06 05:24:14;;;;;;;19.75;9.88;;;;;;;;;;5114000;28;20071;-77
2023/07/06 05:26:40;;;;;;;16.58;9.10;;;;;;;;;;5114880;28;20104;-72
2023/07/06 05:29:07;;;;;;;17.63;10.27;;;;;;;;;;5114863;28;20050;-72
2023/07/06 05:31:33;;;;;;;15.40;9.35;;;;;;;;;;5113480;28;20045;-72
2023/07/06 05:33:59;;;;;;;19.90;10.70;;;;;;;;;;5102928;28;20071;-72
2023/07/06 05:36:25;;;;;;;19.10;9.93;;;;;;;;;;5093912;28;20035;-72
2023/07/06 05:38:51;;;;;;;20.48;10.48;;;;;;;;;;5106187;28;20071;-72
2023/07/06 05:41:17;;;;;;;18.08;10.25;;;;;;;;;;5111859;28;20093;-72
2023/07/06 05:43:43;;;;;;;17.38;10.48;;;;;;;;;;5114762;28;20476;-73
2023/07/06 05:46:09;;;;;;;19.25;10.18;;;;;;;;;;5114944;28;20092;-72
2023/07/06 05:48:36;;;;;;;18.05;11.20;;;;;;;;;;5111710;28;20039;-73
2023/07/06 05:51:02;;;;;;;17.13;10.18;;;;;;;;;;5114898;28;20050;-71
2023/07/06 05:53:29;;;;;;;21.55;11.43;;;;;;;;;;5114648;28;20072;-71
2023/07/06 05:55:55;;;;;;;18.80;9.88;;;;;;;;;;5113522;28;20039;-71
2023/07/06 05:58:22;;;;;;;20.60;10.98;;;;;;;;;;5114297;28;20044;-71
2023/07/06 06:00:48;;;;;;;18.42;10.93;;;;;;;;;;5114215;28;20131;-71
2023/07/06 06:03:16;;;;;;;17.48;10.35;;;;;;;;;;5114758;28;20130;-72
2023/07/06 06:05:42;;;;;;;23.23;10.85;;;;;;;;;;5114865;28;20138;-72
2023/07/06 06:08:08;;;;;;;19.38;10.60;;;;;;;;;;5109084;28;20044;-72
2023/07/06 06:10:34;;;;;;;18.13;11.02;;;;;;;;;;5100673;28;20036;-71
2023/07/06 06:13:00;;;;;;;21.05;11.07;;;;;;;;;;5094007;28;20044;-72
2023/07/06 06:15:27;;;;;;;21.17;10.82;;;;;;;;;;5093550;28;20048;-72
2023/07/06 06:17:53;;;;;;;21.10;11.45;;;;;;;;;;5095459;28;20408;-72
2023/07/06 06:20:19;;;;;;;23.25;11.15;;;;;;;;;;5105634;28;20036;-72
2023/07/06 06:22:46;;;;;;;21.42;10.63;;;;;;;;;;5094111;28;20059;-73
2023/07/06 06:25:12;;;;;;;22.55;10.95;;;;;;;;;;5103589;28;20079;-72
2023/07/06 06:27:38;;;;;;;25.70;10.82;;;;;;;;;;5121495;28;20035;-71
2023/07/06 06:30:05;;;;;;;24.55;10.77;;;;;;;;;;5117521;28;20047;-72
2023/07/06 06:32:35;;;;;;;19.58;10.15;;;;;;;;;;5114289;28;20510;-72
2023/07/06 06:35:02;;;;;;;18.27;10.15;;;;;;;;;;5114057;28;20403;-72
2023/07/06 06:37:28;;;;;;;18.02;10.02;;;;;;;;;;5113573;28;20475;-72
2023/07/06 06:39:54;;;;;;;23.45;10.57;;;;;;;;;;5098457;28;20036;-72
2023/07/06 06:42:21;;;;;;;21.30;10.95;;;;;;;;;;5092935;28;20129;-72
2023/07/06 06:44:49;;;;;;;23.90;10.00;;;;;;;;;;5097413;28;20072;-72
2023/07/06 06:47:15;;;;;;;19.02;9.57;;;;;;;;;;5113632;28;20047;-73
2023/07/06 06:49:42;;;;;;;20.30;9.48;;;;;;;;;;5101462;28;20043;-72
2023/07/06 06:52:08;;;;;;;19.60;9.40;;;;;;;;;;5113199;28;20054;-72
2023/07/06 06:54:35;;;;;;;21.15;9.32;;;;;;;;;;5104717;28;20394;-71
2023/07/06 06:57:01;;;;;;;19.77;9.90;;;;;;;;;;5092713;28;20445;-72
2023/07/06 06:59:28;;;;;;;19.00;9.13;;;;;;;;;;5092133;28;20138;-71
2023/07/06 07:01:54;;;;;;;25.33;9.98;;;;;;;;;;5097331;28;20063;-71
2023/07/06 07:04:20;;;;;;;15.85;8.70;;;;;;;;;;5113634;28;20043;-71
2023/07/06 07:06:46;;;;;;;19.92;9.65;;;;;;;;;;5112172;28;20381;-72
2023/07/06 07:09:13;;;;;;;18.30;8.93;;;;;;;;;;5113700;28;20075;-73
2023/07/06 07:11:39;;;;;;;23.48;9.07;;;;;;;;;;5111082;28;20100;-71
2023/07/06 07:14:07;;;;;;;15.65;8.32;;;;;;;;;;5110213;28;20036;-71
2023/07/06 07:16:34;;;;;;;20.77;8.73;;;;;;;;;;5110982;28;20396;-71
2023/07/06 07:19:01;;;;;;;18.90;8.70;;;;;;;;;;5107754;28;20510;-71
2023/07/06 07:21:27;;;;;;;17.20;8.18;;;;;;;;;;5109409;28;20498;-72
2023/07/06 07:23:54;;;;;;;17.55;7.82;;;;;;;;;;5109632;28;20048;-72
2023/07/06 07:26:21;;;;;;;15.85;7.88;;;;;;;;;;5106477;28;20476;-73
2023/07/06 07:28:48;;;;;;;18.00;7.15;;;;;;;;;;5102133;28;20044;-71
2023/07/06 07:31:15;;;;;;;14.05;6.82;;;;;;;;;;5090514;28;20101;-71
2023/07/06 07:33:42;;;;;;;14.15;6.35;;;;;;;;;;5092181;28;20507;-71
2023/07/06 07:36:09;;;;;;;15.98;6.50;;;;;;;;;;5092068;28;20043;-72
2023/07/06 07:38:37;;;;;;;14.88;6.70;;;;;;;;;;5090813;28;20079;-72
2023/07/06 07:41:06;;;;;;;19.25;6.40;;;;;;;;;;5092367;28;20047;-72
2023/07/06 07:43:33;;;;;;;11.20;5.38;;;;;;;;;;5104171;28;20438;-72
2023/07/06 07:46:03;;;;;;;10.30;4.50;;;;;;;;;;5112542;28;20043;-72
2023/07/06 07:48:32;;;;;;;10.32;4.20;;;;;;;;;;5112502;28;20075;-72
2023/07/06 07:51:01;;;;;;;11.75;4.60;;;;;;;;;;5112747;28;20072;-72
2023/07/06 07:53:27;;;;;;;13.40;4.47;;;;;;;;;;5112506;28;20054;-73
2023/07/06 07:55:54;;;;;;;9.88;4.53;;;;;;;;;;5111437;28;20050;-72
2023/07/06 07:58:24;;;;;;;12.52;4.28;;;;;;;;;;5112547;28;20092;-73
2023/07/06 08:00:50;;;;;;;11.32;4.38;;;;;;;;;;5112066;28;20039;-73
2023/07/06 08:03:16;;;;;;;11.43;3.70;;;;;;;;;;5112303;28;20090;-73
2023/07/06 08:05:43;;;;;;;9.60;3.35;;;;;;;;;;5112362;28;20054;-73
2023/07/06 08:08:10;;;;;;;9.02;3.45;;;;;;;;;;5112347;28;20400;-73
2023/07/06 08:10:38;;;;;;;9.27;2.95;;;;;;;;;;5111889;28;20431;-73
2023/07/06 08:13:06;;;;;;;7.63;2.72;;;;;;;;;;5111994;28;20120;-73
2023/07/06 08:15:33;;;;;;;9.95;2.60;;;;;;;;;;5112055;28;20058;-70
2023/07/06 08:18:00;;;;;;;5.78;2.67;;;;;;;;;;5105783;28;20094;-69
2023/07/06 08:20:29;;;;;;;6.47;2.10;;;;;;;;;;5102083;28;20048;-69
2023/07/06 08:22:57;;;;;;;6.70;2.50;;;;;;;;;;5092563;28;20052;-69
2023/07/06 08:25:25;;;;;;;7.80;3.00;;;;;;;;;;5113076;28;20407;-69
2023/07/06 08:27:51;;;;;;;9.15;2.85;;;;;;;;;;5116490;28;20103;-69
2023/07/06 08:30:20;;;;;;;5.53;2.25;;;;;;;;;;5114875;28;20048;-69
2023/07/06 08:32:48;;;;;;;5.40;2.20;;;;;;;;;;5116503;27;20051;-69
2023/07/06 08:35:15;;;;;;;5.18;2.08;;;;;;;;;;5116588;28;20040;-68
2023/07/06 08:37:41;;;;;;;7.72;2.38;;;;;;;;;;5103708;28;20059;-69
2023/07/06 08:40:11;;;;;;;7.20;2.60;;;;;;;;;;5095740;28;20044;-69
2023/07/06 08:42:37;;;;;;;6.55;2.60;;;;;;;;;;5095662;28;20385;-69
2023/07/06 08:45:03;;;;;;;6.68;2.30;;;;;;;;;;5095116;28;20036;-70
2023/07/06 08:47:30;;;;;;;7.45;2.65;;;;;;;;;;5095795;28;20048;-70
2023/07/06 08:49:57;;;;;;;8.60;2.85;;;;;;;;;;5094719;28;20105;-70
2023/07/06 08:52:24;;;;;;;6.85;2.50;;;;;;;;;;5097450;28;20055;-70
2023/07/06 08:54:51;;;;;;;7.13;2.60;;;;;;;;;;5113738;28;20110;-69
2023/07/06 08:57:20;;;;;;;6.85;2.45;;;;;;;;;;5113710;28;20043;-69
2023/07/06 08:59:48;;;;;;;6.13;2.30;;;;;;;;;;5095145;28;20453;-70
2023/07/06 09:02:18;;;;;;;10.10;2.70;;;;;;;;;;5095937;28;20433;-70
2023/07/06 09:04:48;;;;;;;6.35;2.20;;;;;;;;;;5095240;28;20051;-70
2023/07/06 09:07:18;;;;;;;6.00;2.58;;;;;;;;;;5107301;28;20495;-70
2023/07/06 09:09:45;;;;;;;6.50;2.13;;;;;;;;;;5106041;28;20392;-69
2023/07/06 09:12:32;;;;;;;5.20;2.40;;;;;;;;;;5093560;28;20387;-70
2023/07/06 09:14:59;;;;;;;5.25;2.50;;;;;;;;;;5095660;28;20079;-70
2023/07/06 09:17:26;;;;;;;6.03;2.13;;;;;;;;;;5095325;28;20044;-69
2023/07/06 09:19:53;;;;;;;7.03;2.22;;;;;;;;;;5103752;28;20074;-70
2023/07/06 09:22:22;;;;;;;5.85;2.53;;;;;;;;;;5112056;28;20060;-69
2023/07/06 09:24:49;;;;;;;9.65;2.47;;;;;;;;;;5092889;28;20048;-74
2023/07/06 09:27:22;;;;;;;5.38;2.30;;;;;;;;;;5090850;28;20395;-73
2023/07/06 09:30:01;;;;;;;6.38;2.38;;;;;;;;;;5091876;28;20079;-73
2023/07/06 09:32:32;;;;;;;7.65;2.25;;;;;;;;;;5091751;28;20044;-74
2023/07/06 09:35:12;;;;;;;7.93;2.40;;;;;;;;;;5091167;28;20087;-73
2023/07/06 09:37:46;;;;;;;7.07;2.20;;;;;;;;;;5092035;28;20127;-74
2023/07/06 09:40:14;;;;;;;3.55;2.00;;;;;;;;;;5092174;28;20048;-74
2023/07/06 09:42:44;;;;;;;4.97;1.95;;;;;;;;;;5100683;28;20051;-72
2023/07/06 09:45:23;;;;;;;4.30;2.05;;;;;;;;;;5097643;28;20032;-72
2023/07/06 09:47:53;;;;;;;6.30;1.92;;;;;;;;;;5094733;28;20043;-73
2023/07/06 09:50:21;;;;;;;5.22;1.83;;;;;;;;;;5094319;28;20117;-73
2023/07/06 09:52:47;;;;;;;7.40;2.47;;;;;;;;;;5100332;28;20047;-73
2023/07/06 09:55:20;;;;;;;6.00;2.30;;;;;;;;;;5114803;28;20071;-72
2023/07/06 09:57:49;;;;;;;4.07;1.98;;;;;;;;;;5114792;28;20105;-72
2023/07/06 10:00:22;;;;;;;6.78;2.03;;;;;;;;;;5113074;28;20051;-73
2023/07/06 10:03:01;;;;;;;3.85;1.80;;;;;;;;;;5115034;28;20075;-73
2023/07/06 10:05:46;;;;;;;4.43;1.90;;;;;;;;;;5114507;28;20113;-73
2023/07/06 10:08:12;;;;;;;5.88;2.05;;;;;;;;;;5114609;28;20040;-73
2023/07/06 10:10:48;;;;;;;7.70;2.20;;;;;;;;;;5114038;28;20089;-72
2023/07/06 10:13:33;;;;;;;5.97;2.08;;;;;;;;;;5113116;28;20464;-73
2023/07/06 10:16:15;;;;;;;3.83;2.00;;;;;;;;;;5113249;28;20373;-72
2023/07/06 10:18:52;;;;;;;4.28;1.80;;;;;;;;;;5114069;28;20116;-72
2023/07/06 10:21:22;;;;;;;4.97;2.00;;;;;;;;;;5114288;28;20479;-71
2023/07/06 10:23:54;;;;;;;5.45;2.00;;;;;;;;;;5114276;28;20086;-72
2023/07/06 10:26:29;;;;;;;6.53;1.85;;;;;;;;;;5114198;28;20452;-72
2023/07/06 10:28:59;;;;;;;7.22;2.00;;;;;;;;;;5114188;28;20090;-72
2023/07/06 10:31:29;;;;;;;6.18;2.20;;;;;;;;;;5113690;28;20066;-72
2023/07/06 10:34:00;;;;;;;4.53;2.00;;;;;;;;;;5113955;28;20047;-72
2023/07/06 10:36:32;;;;;;;5.72;2.10;;;;;;;;;;5112674;28;20108;-72
2023/07/06 10:39:04;;;;;;;5.10;1.90;;;;;;;;;;5112951;28;20126;-72
2023/07/06 10:41:34;;;;;;;11.55;2.17;;;;;;;;;;5112520;28;20088;-72
2023/07/06 10:44:21;;;;;;;6.38;2.00;;;;;;;;;;5112686;28;20040;-73
2023/07/06 10:46:59;;;;;;;5.07;2.10;;;;;;;;;;5110966;28;20483;-74
2023/07/06 10:49:25;;;;;;;6.90;1.75;;;;;;;;;;5113480;28;20044;-72
2023/07/06 10:51:53;;;;;;;6.35;1.70;;;;;;;;;;5113660;28;20036;-73
2023/07/06 10:54:24;;;;;;;4.97;1.67;;;;;;;;;;5113498;28;20039;-73
2023/07/06 10:57:03;;;;;;;4.85;1.60;;;;;;;;;;5111917;28;20444;-73
2023/07/06 10:59:36;;;;;;;4.38;2.00;;;;;;;;;;5113407;28;20131;-74
2023/07/06 11:02:14;;;;;;;4.95;1.70;;;;;;;;;;5113816;28;20105;-73
2023/07/06 11:04:44;;;;;;;3.63;1.58;;;;;;;;;;5113224;28;20137;-72
2023/07/06 11:07:34;;;;;;;2.63;1.50;;;;;;;;;;5113433;28;20443;-73
2023/07/06 11:10:14;;;;;;;5.63;1.80;;;;;;;;;;5091256;27;21026;-72
2023/07/06 11:12:55;;;;;;;6.22;1.70;;;;;;;;;;5089457;28;20072;-73
2023/07/06 11:15:24;;;;;;;5.13;1.58;;;;;;;;;;5089565;28;20426;-73
2023/07/06 11:17:51;;;;;;;3.70;1.60;;;;;;;;;;5089434;28;20040;-73
2023/07/06 11:20:21;;;;;;;4.95;1.60;;;;;;;;;;5089169;28;20169;-72
2023/07/06 11:22:52;;;;;;;3.10;1.50;;;;;;;;;;5089615;28;20040;-74
2023/07/06 11:25:19;;;;;;;3.97;1.60;;;;;;;;;;5089321;28;20070;-73
2023/07/06 11:27:48;;;;;;;3.03;1.50;;;;;;;;;;5089269;28;20044;-73
2023/07/06 11:30:22;;;;;;;5.32;1.83;;;;;;;;;;5089122;28;20086;-72
2023/07/06 11:32:51;;;;;;;5.80;1.80;;;;;;;;;;5089269;28;20044;-73
2023/07/06 11:35:18;;;;;;;3.22;1.50;;;;;;;;;;5089132;28;20056;-73
2023/07/06 11:37:44;;;;;;;3.35;1.65;;;;;;;;;;5089311;28;20480;-73
2023/07/06 11:40:29;;;;;;;4.32;1.60;;;;;;;;;;5088892;28;20382;-73
2023/07/06 11:43:17;;;;;;;5.10;1.70;;;;;;;;;;5089018;28;20143;-73
2023/07/06 11:45:52;;;;;;;5.43;1.83;;;;;;;;;;5087601;28;20301;-73
2023/07/06 11:48:21;;;;;;;7.38;1.90;;;;;;;;;;5088860;28;20362;-74
2023/07/06 11:50:48;;;;;;;4.13;1.73;;;;;;;;;;5088795;28;20123;-72
2023/07/06 11:53:29;;;;;;;7.78;2.05;;;;;;;;;;5088654;28;20392;-73
2023/07/06 11:56:05;;;;;;;4.82;2.10;;;;;;;;;;5087001;28;20055;-73
2023/07/06 11:58:43;;;;;;;3.90;1.85;;;;;;;;;;5088404;28;20079;-72
2023/07/06 12:01:20;;;;;;;3.90;1.90;;;;;;;;;;5088789;28;20143;-73
2023/07/06 12:03:47;;;;;;;5.03;2.10;;;;;;;;;;5068257;28;20045;-73
2023/07/06 12:06:17;;;;;;;5.22;1.90;;;;;;;;;;5068249;28;20052;-72
2023/07/06 12:08:45;;;;;;;3.78;1.77;;;;;;;;;;5068141;28;20052;-73
2023/07/06 12:11:16;;;;;;;4.75;1.92;;;;;;;;;;5068081;28;20496;-73
2023/07/06 12:13:43;;;;;;;5.80;2.03;;;;;;;;;;5068034;28;20040;-74
2023/07/06 12:16:11;;;;;;;5.22;1.88;;;;;;;;;;5066849;28;20171;-72
2023/07/06 12:18:38;;;;;;;4.95;1.98;;;;;;;;;;5067960;28;20386;-72
2023/07/06 12:21:05;;;;;;;6.13;2.20;;;;;;;;;;5056505;28;20041;-73
2023/07/06 12:23:33;;;;;;;5.85;2.20;;;;;;;;;;5054920;28;20370;-72
2023/07/06 12:26:00;;;;;;;4.57;2.10;;;;;;;;;;5036566;28;20552;-73
2023/07/06 12:28:29;;;;;;;5.40;2.35;;;;;;;;;;5054627;28;20055;-73
2023/07/06 12:30:58;;;;;;;5.22;2.15;;;;;;;;;;5054371;28;20099;-72
2023/07/06 12:33:24;;;;;;;4.65;2.10;;;;;;;;;;5053012;28;20045;-72
2023/07/06 12:35:51;;;;;;;5.00;2.20;;;;;;;;;;5053201;28;20531;-72
2023/07/06 12:38:19;;;;;;;4.10;2.10;;;;;;;;;;5052970;28;20049;-72
2023/07/06 12:40:46;;;;;;;4.63;2.20;;;;;;;;;;5054194;28;20099;-74
2023/07/06 12:43:19;;;;;;;4.57;2.13;;;;;;;;;;5054188;28;20159;-73
2023/07/06 12:45:45;;;;;;;4.07;2.10;;;;;;;;;;5052463;28;20103;-73
2023/07/06 12:48:18;;;;;;;7.38;2.20;;;;;;;;;;5052835;28;20045;-73
2023/07/06 12:50:46;;;;;;;4.60;2.20;;;;;;;;;;5054346;28;20033;-73
2023/07/06 12:53:13;;;;;;;4.65;1.80;;;;;;;;;;5058697;28;20056;-72
2023/07/06 12:55:44;;;;;;;4.97;2.00;;;;;;;;;;5052665;28;20080;-73
2023/07/06 12:58:27;;;;;;;4.55;1.85;;;;;;;;;;5053260;28;20045;-73
2023/07/06 13:01:00;;;;;;;6.45;2.00;;;;;;;;;;5051760;28;20072;-72
2023/07/06 13:03:26;;;;;;;4.68;1.90;;;;;;;;;;5058768;28;20124;-72
2023/07/06 13:05:54;;;;;;;4.25;2.00;;;;;;;;;;5060678;28;20037;-72
2023/07/06 13:08:20;;;;;;;5.30;2.03;;;;;;;;;;5053418;28;20136;-72
2023/07/06 13:10:55;;;;;;;5.13;1.88;;;;;;;;;;5051195;28;20045;-74
2023/07/06 13:13:21;;;;;;;5.70;1.80;;;;;;;;;;5053553;28;20389;-72
2023/07/06 13:15:55;;;;;;;5.88;1.70;;;;;;;;;;5051870;28;20052;-72
2023/07/06 13:18:22;;;;;;;3.15;1.60;;;;;;;;;;5053712;28;20055;-72
2023/07/06 13:20:49;;;;;;;3.17;1.42;;;;;;;;;;5053607;28;20187;-70
2023/07/06 13:23:18;;;;;;;7.25;1.80;;;;;;;;;;5053551;28;20503;-71
2023/07/06 13:25:48;;;;;;;2.25;1.48;;;;;;;;;;5053390;28;20049;-70
2023/07/06 13:28:15;;;;;;;5.57;1.90;;;;;;;;;;5051949;28;20243;-70
2023/07/06 13:30:45;;;;;;;4.10;1.70;;;;;;;;;;5053224;28;20041;-70
2023/07/06 13:33:12;;;;;;;3.05;1.48;;;;;;;;;;5052224;28;20040;-70
2023/07/06 13:35:39;;;;;;;2.45;1.42;;;;;;;;;;5052858;28;20539;-70
2023/07/06 13:38:05;;;;;;;4.72;1.50;;;;;;;;;;5068513;28;20103;-70
2023/07/06 13:40:36;;;;;;;3.25;1.45;;;;;;;;;;5052650;28;20048;-71
2023/07/06 13:43:04;;;;;;;5.07;1.48;;;;;;;;;;5053210;28;20052;-70
2023/07/06 13:45:32;;;;;;;2.92;1.45;;;;;;;;;;5052944;28;20465;-71
2023/07/06 13:47:58;;;;;;;3.45;1.60;;;;;;;;;;5052788;28;20096;-70
2023/07/06 13:50:25;;;;;;;4.25;1.50;;;;;;;;;;5052449;28;20110;-71
2023/07/06 13:52:52;;;;;;;3.85;1.60;;;;;;;;;;5067647;28;20124;-71
2023/07/06 13:55:43;;;;;;;3.35;1.52;;;;;;;;;;5052436;28;20037;-71
2023/07/06 13:58:11;;;;;;;4.28;1.60;;;;;;;;;;5068106;28;20084;-70
2023/07/06 14:00:37;;;;;;;3.00;1.60;;;;;;;;;;5052394;28;20045;-70
2023/07/06 14:03:03;;;;;;;3.53;1.50;;;;;;;;;;5052652;28;20040;-70
2023/07/06 14:05:30;;;;;;;6.30;1.73;;;;;;;;;;5052484;28;20048;-70
2023/07/06 14:07:56;;;;;;;3.25;1.50;;;;;;;;;;5052357;28;20045;-70
2023/07/06 14:10:22;;;;;;;5.07;1.60;;;;;;;;;;5052116;28;20064;-71
2023/07/06 14:12:52;;;;;;;3.55;1.60;;;;;;;;;;5053053;28;20048;-70
2023/07/06 14:15:18;;;;;;;6.57;1.67;;;;;;;;;;5052531;28;20071;-70
2023/07/06 14:17:45;;;;;;;3.40;1.60;;;;;;;;;;5052316;28;20455;-71
2023/07/06 14:20:11;;;;;;;4.00;1.63;;;;;;;;;;5051828;28;20045;-70
2023/07/06 14:22:38;;;;;;;4.22;1.50;;;;;;;;;;5051535;28;20116;-70
2023/07/06 14:25:30;;;;;;;2.85;1.58;;;;;;;;;;5052028;28;20041;-70
2023/07/06 14:27:56;;;;;;;6.28;1.80;;;;;;;;;;5048171;28;20064;-70
2023/07/06 14:30:23;;;;;;;4.22;1.90;;;;;;;;;;5052122;28;20044;-70
2023/07/06 14:32:50;;;;;;;3.28;1.70;;;;;;;;;;5052517;28;20056;-70
2023/07/06 14:35:17;;;;;;;3.75;1.70;;;;;;;;;;5052108;28;20056;-70
2023/07/06 14:37:44;;;;;;;5.60;1.88;;;;;;;;;;5052034;28;20041;-70
2023/07/06 14:40:11;;;;;;;7.38;1.95;;;;;;;;;;5051502;28;20044;-70
2023/07/06 14:42:37;;;;;;;4.38;1.88;;;;;;;;;;5051330;28;20442;-70